createdAt,value
2019-05-05T00:02:20.901Z,101272.20
2019-05-05T00:04:50.987Z,101283.34
2019-05-05T00:07:21.238Z,101281.30
2019-05-05T00:09:49.673Z,101280.95
2019-05-05T00:12:19.902Z,101286.22
2019-05-05T00:14:50.280Z,101290.17
2019-05-05T00:17:20.342Z,101279.55
2019-05-05T00:19:48.763Z,101293.33
2019-05-05T00:22:17.286Z,101290.08
2019-05-05T00:24:45.871Z,101288.64
2019-05-05T00:27:15.070Z,101289.02
2019-05-05T00:29:45.361Z,101284.95
2019-05-05T00:32:15.259Z,101285.70
2019-05-05T00:34:44.611Z,101286.89
2019-05-05T00:37:15.227Z,101288.67
2019-05-05T00:39:45.173Z,101294.53
2019-05-05T00:42:15.411Z,101291.82
2019-05-05T00:44:44.778Z,101295.05
2019-05-05T00:47:21.023Z,101301.52
2019-05-05T00:49:51.100Z,101295.17
2019-05-05T00:52:19.518Z,101301.39
2019-05-05T00:54:47.978Z,101298.27
2019-05-05T00:57:16.446Z,101298.88
2019-05-05T00:59:45.340Z,101301.38
2019-05-05T01:02:15.643Z,101303.30
2019-05-05T01:04:45.733Z,101305.34
2019-05-05T01:07:14.351Z,101306.07
2019-05-05T01:09:45.125Z,101312.52
2019-05-05T01:12:15.062Z,101313.48
2019-05-05T01:14:44.741Z,101311.44
2019-05-05T01:17:14.735Z,101312.27
2019-05-05T01:19:45.387Z,101322.78
2019-05-05T01:22:14.383Z,101314.53
2019-05-05T01:24:43.182Z,101320.65
2019-05-05T01:27:12.194Z,101318.02
2019-05-05T01:29:40.632Z,101323.88
2019-05-05T01:32:10.935Z,101327.69
2019-05-05T01:34:41.060Z,101327.56
2019-05-05T01:37:11.107Z,101324.80
2019-05-05T01:39:51.473Z,101329.34
2019-05-05T01:42:20.057Z,101330.30
2019-05-05T01:44:48.483Z,101331.61
2019-05-05T01:47:16.981Z,101337.59
2019-05-05T01:49:45.565Z,101336.28
2019-05-05T01:52:14.874Z,101333.29
2019-05-05T01:54:44.595Z,101340.36
2019-05-05T01:57:14.831Z,101340.81
2019-05-05T01:59:44.772Z,101345.62
2019-05-05T02:02:14.676Z,101346.08
2019-05-05T02:04:44.776Z,101343.45
2019-05-05T02:07:14.545Z,101338.55
2019-05-05T02:09:44.917Z,101340.12
2019-05-05T02:12:15.227Z,101340.72
2019-05-05T02:14:44.471Z,101344.06
2019-05-05T02:17:14.395Z,101342.39
2019-05-05T02:19:44.390Z,101345.87
2019-05-05T02:22:14.667Z,101344.56
2019-05-05T02:24:44.482Z,101349.56
2019-05-05T02:27:14.576Z,101343.70
2019-05-05T02:29:47.484Z,101352.06
2019-05-05T02:32:17.850Z,101340.00
2019-05-05T02:34:47.920Z,101344.40
2019-05-05T02:37:16.354Z,101349.89
2019-05-05T02:39:57.254Z,101347.85
2019-05-05T02:42:17.025Z,101347.85
2019-05-05T02:44:45.980Z,101349.53
2019-05-05T02:47:18.004Z,101352.16
2019-05-05T02:49:45.981Z,101353.11
2019-05-05T02:52:15.702Z,101348.84
2019-05-05T02:54:45.161Z,101347.75
2019-05-05T02:57:15.105Z,101359.81
2019-05-05T02:59:45.901Z,101354.78
2019-05-05T03:02:17.056Z,101360.04
2019-05-05T03:04:46.555Z,101363.98
2019-05-05T03:07:17.719Z,101369.97
2019-05-05T03:09:48.549Z,101359.91
2019-05-05T03:12:19.780Z,101364.71
2019-05-05T03:14:50.155Z,101365.30
2019-05-05T03:17:19.338Z,101362.53
2019-05-05T03:19:48.902Z,101364.80
2019-05-05T03:22:18.326Z,101369.34
2019-05-05T03:24:46.775Z,101367.30
2019-05-05T03:27:15.374Z,101365.26
2019-05-05T03:29:44.348Z,101374.95
2019-05-05T03:32:16.035Z,101379.13
2019-05-05T03:34:44.590Z,101374.23
2019-05-05T03:37:14.657Z,101389.42
2019-05-05T03:39:45.297Z,101388.59
2019-05-05T03:42:24.615Z,101382.48
2019-05-05T03:44:55.305Z,101391.09
2019-05-05T03:47:24.144Z,101387.52
2019-05-05T03:49:53.559Z,101389.92
2019-05-05T03:52:24.452Z,101396.86
2019-05-05T03:54:54.246Z,101396.86
2019-05-05T03:57:24.598Z,101402.12
2019-05-05T03:59:54.767Z,101400.22
2019-05-05T04:02:25.338Z,101403.57
2019-05-05T04:04:55.403Z,101408.97
2019-05-05T04:07:24.306Z,101408.61
2019-05-05T04:09:54.244Z,101410.88
2019-05-05T04:12:24.143Z,101406.98
2019-05-05T04:14:54.573Z,101411.52
2019-05-05T04:17:24.881Z,101417.27
2019-05-05T04:19:54.952Z,101409.16
2019-05-05T04:22:23.812Z,101414.19
2019-05-05T04:24:54.135Z,101418.27
2019-05-05T04:27:23.892Z,101422.54
2019-05-05T04:29:54.325Z,101421.36
2019-05-05T04:32:24.430Z,101421.84
2019-05-05T04:34:54.324Z,101431.09
2019-05-05T04:37:23.899Z,101427.14
2019-05-05T04:39:53.728Z,101428.00
2019-05-05T04:42:23.965Z,101425.72
2019-05-05T04:44:53.800Z,101426.43
2019-05-05T04:47:29.775Z,101429.91
2019-05-05T04:50:05.718Z,101429.80
2019-05-05T04:52:34.588Z,101436.28
2019-05-05T04:55:03.937Z,101437.45
2019-05-05T04:57:32.493Z,101437.69
2019-05-05T05:00:00.998Z,101437.58
2019-05-05T05:02:34.244Z,101444.40
2019-05-05T05:05:10.524Z,101444.00
2019-05-05T05:07:39.135Z,101447.23
2019-05-05T05:10:08.105Z,101447.69
2019-05-05T05:12:36.569Z,101442.86
2019-05-05T05:15:06.132Z,101449.08
2019-05-05T05:17:36.253Z,101444.73
2019-05-05T05:20:06.941Z,101449.13
2019-05-05T05:22:35.310Z,101455.55
2019-05-05T05:25:04.582Z,101452.27
2019-05-05T05:27:33.645Z,101452.91
2019-05-05T05:30:04.544Z,101457.17
2019-05-05T05:32:33.979Z,101466.72
2019-05-05T05:35:03.900Z,101468.30
2019-05-05T05:37:34.160Z,101469.30
2019-05-05T05:40:07.036Z,101469.20
2019-05-05T05:42:35.473Z,101477.77
2019-05-05T05:45:14.591Z,101483.33
2019-05-05T05:47:56.915Z,101481.27
2019-05-05T05:50:29.403Z,101489.32
2019-05-05T05:52:57.810Z,101495.69
2019-05-05T05:55:26.400Z,101493.38
2019-05-05T05:57:54.821Z,101497.45
2019-05-05T06:00:23.813Z,101498.16
2019-05-05T06:02:54.496Z,101505.52
2019-05-05T06:05:23.838Z,101502.39
2019-05-05T06:07:54.469Z,101500.72
2019-05-05T06:10:26.652Z,101509.78
2019-05-05T06:12:54.687Z,101502.11
2019-05-05T06:15:24.471Z,101511.87
2019-05-05T06:17:53.944Z,101512.48
2019-05-05T06:20:23.890Z,101515.75
2019-05-05T06:22:53.605Z,101520.21
2019-05-05T06:25:26.220Z,101524.80
2019-05-05T06:27:54.018Z,101521.65
2019-05-05T06:30:24.388Z,101523.73
2019-05-05T06:32:54.363Z,101528.66
2019-05-05T06:35:24.432Z,101528.79
2019-05-05T06:37:55.622Z,101535.55
2019-05-05T06:40:35.411Z,101527.84
2019-05-05T06:43:14.403Z,101529.91
2019-05-05T06:45:49.911Z,101527.72
2019-05-05T06:48:18.329Z,101528.66
2019-05-05T06:50:47.006Z,101530.28
2019-05-05T06:53:15.452Z,101526.11
2019-05-05T06:55:44.445Z,101529.88
2019-05-05T06:58:13.672Z,101530.38
2019-05-05T07:00:44.114Z,101526.83
2019-05-05T07:03:13.902Z,101536.35
2019-05-05T07:05:43.797Z,101536.10
2019-05-05T07:08:13.800Z,101540.66
2019-05-05T07:10:44.264Z,101538.77
2019-05-05T07:13:14.038Z,101542.20
2019-05-05T07:15:43.901Z,101537.30
2019-05-05T07:18:14.277Z,101541.72
2019-05-05T07:20:44.067Z,101541.97
2019-05-05T07:23:14.478Z,101544.19
2019-05-05T07:25:45.797Z,101546.58
2019-05-05T07:28:14.817Z,101543.30
2019-05-05T07:30:44.266Z,101542.69
2019-05-05T07:33:14.975Z,101542.58
2019-05-05T07:35:58.675Z,101540.97
2019-05-05T07:38:18.696Z,101548.17
2019-05-05T07:40:47.422Z,101545.05
2019-05-05T07:43:15.909Z,101540.96
2019-05-05T07:45:44.643Z,101543.05
2019-05-05T07:48:13.916Z,101543.75
2019-05-05T07:50:44.969Z,101541.65
2019-05-05T07:53:17.566Z,101543.85
2019-05-05T07:55:43.806Z,101533.91
2019-05-05T07:58:13.895Z,101538.96
2019-05-05T08:00:43.653Z,101545.00
2019-05-05T08:03:14.387Z,101552.33
2019-05-05T08:05:44.208Z,101551.66
2019-05-05T08:08:13.919Z,101553.66
2019-05-05T08:10:43.874Z,101555.33
2019-05-05T08:13:14.284Z,101558.85
2019-05-05T08:15:56.272Z,101558.67
2019-05-05T08:18:24.345Z,101555.02
2019-05-05T08:20:54.800Z,101559.67
2019-05-05T08:23:31.783Z,101557.67
2019-05-05T08:25:57.584Z,101555.81
2019-05-05T08:28:31.547Z,101562.34
2019-05-05T08:31:03.808Z,101570.17
2019-05-05T08:33:33.636Z,101568.34
2019-05-05T08:36:04.546Z,101568.38
2019-05-05T08:38:34.721Z,101580.05
2019-05-05T08:41:05.797Z,101571.35
2019-05-05T08:43:35.044Z,101575.17
2019-05-05T08:46:04.926Z,101568.64
2019-05-05T08:48:34.293Z,101570.98
2019-05-05T08:51:04.915Z,101567.31
2019-05-05T08:53:42.582Z,101562.82
2019-05-05T08:56:04.712Z,101563.81
2019-05-05T08:58:34.424Z,101555.59
2019-05-05T09:01:04.491Z,101567.53
2019-05-05T09:03:34.513Z,101556.30
2019-05-05T09:06:04.719Z,101548.39
2019-05-05T09:08:34.698Z,101548.67
2019-05-05T09:11:04.809Z,101552.25
2019-05-05T09:13:34.040Z,101552.02
2019-05-05T09:16:03.749Z,101553.16
2019-05-05T09:18:33.914Z,101554.40
2019-05-05T09:21:04.406Z,101554.40
2019-05-05T09:23:35.180Z,101553.47
2019-05-05T09:26:13.781Z,101547.81
2019-05-05T09:28:44.671Z,101546.83
2019-05-05T09:31:14.707Z,101540.45
2019-05-05T09:33:45.176Z,101540.50
2019-05-05T09:36:14.237Z,101537.19
2019-05-05T09:38:45.025Z,101540.76
2019-05-05T09:41:16.085Z,101548.37
2019-05-05T09:43:46.520Z,101556.73
2019-05-05T09:46:15.771Z,101560.52
2019-05-05T09:48:44.952Z,101565.71
2019-05-05T09:51:13.951Z,101564.80
2019-05-05T09:53:44.838Z,101576.05
2019-05-05T09:56:14.685Z,101566.52
2019-05-05T09:58:44.285Z,101566.77
2019-05-05T10:01:15.132Z,101562.27
2019-05-05T10:03:44.730Z,101575.70
2019-05-05T10:06:14.216Z,101578.58
2019-05-05T10:08:44.631Z,101577.78
2019-05-05T10:11:16.371Z,101580.98
2019-05-05T10:13:44.366Z,101588.48
2019-05-05T10:16:14.418Z,101587.73
2019-05-05T10:18:44.869Z,101592.28
2019-05-05T10:21:17.472Z,101597.83
2019-05-05T10:23:46.407Z,101593.67
2019-05-05T10:26:15.869Z,101592.66
2019-05-05T10:28:46.626Z,101598.48
2019-05-05T10:31:15.927Z,101601.30
2019-05-05T10:33:49.867Z,101596.95
2019-05-05T10:36:20.895Z,101597.29
2019-05-05T10:38:56.150Z,101593.41
2019-05-05T10:41:25.893Z,101592.41
2019-05-05T10:43:56.005Z,101593.22
2019-05-05T10:46:26.488Z,101596.88
2019-05-05T10:48:59.628Z,101587.69
2019-05-05T10:51:29.573Z,101588.16
2019-05-05T10:53:58.599Z,101578.92
2019-05-05T10:56:28.044Z,101579.37
2019-05-05T10:58:57.540Z,101580.21
2019-05-05T11:01:27.846Z,101584.70
2019-05-05T11:03:56.943Z,101581.32
2019-05-05T11:06:25.776Z,101583.63
2019-05-05T11:08:54.684Z,101581.57
2019-05-05T11:11:23.912Z,101583.16
2019-05-05T11:13:54.263Z,101585.45
2019-05-05T11:16:23.274Z,101579.89
2019-05-05T11:18:54.057Z,101578.83
2019-05-05T11:21:23.687Z,101586.61
2019-05-05T11:23:53.913Z,101586.58
2019-05-05T11:26:24.527Z,101573.19
2019-05-05T11:28:53.876Z,101583.25
2019-05-05T11:31:23.961Z,101585.63
2019-05-05T11:33:54.371Z,101583.03
2019-05-05T11:36:24.646Z,101584.07
2019-05-05T11:38:54.584Z,101579.40
2019-05-05T11:41:24.282Z,101586.75
2019-05-05T11:43:53.555Z,101573.36
2019-05-05T11:46:22.060Z,101583.88
2019-05-05T11:48:50.499Z,101579.51
2019-05-05T11:51:19.285Z,101581.52
2019-05-05T11:53:47.902Z,101577.86
2019-05-05T11:56:19.019Z,101577.42
2019-05-05T11:58:48.695Z,101584.23
2019-05-05T12:01:17.211Z,101575.98
2019-05-05T12:03:45.603Z,101579.64
2019-05-05T12:06:14.812Z,101584.05
2019-05-05T12:08:45.748Z,101580.71
2019-05-05T12:11:15.119Z,101594.67
2019-05-05T12:13:44.940Z,101591.45
2019-05-05T12:16:15.129Z,101593.23
2019-05-05T12:18:44.875Z,101598.33
2019-05-05T12:21:14.118Z,101589.02
2019-05-05T12:23:44.455Z,101590.76
2019-05-05T12:26:14.475Z,101599.19
2019-05-05T12:28:45.086Z,101601.69
2019-05-05T12:31:18.082Z,101604.39
2019-05-05T12:33:46.709Z,101601.97
2019-05-05T12:36:19.233Z,101592.95
2019-05-05T12:38:48.026Z,101606.51
2019-05-05T12:41:20.770Z,101606.00
2019-05-05T12:43:49.950Z,101595.34
2019-05-05T12:46:25.921Z,101600.73
2019-05-05T12:48:56.151Z,101600.05
2019-05-05T12:51:25.496Z,101598.35
2019-05-05T12:53:54.286Z,101598.16
2019-05-05T12:56:23.826Z,101594.69
2019-05-05T12:59:05.386Z,101594.95
2019-05-05T13:01:44.119Z,101600.09
2019-05-05T17:07:37.892Z,101600.80
2019-05-05T17:10:07.057Z,101600.80
2019-05-05T17:12:35.531Z,101623.95
2019-05-05T17:15:23.952Z,101629.61
2019-05-05T17:17:56.902Z,101640.60
2019-05-05T17:20:44.147Z,101641.18
2019-05-05T17:23:15.530Z,101640.74
2019-05-05T17:25:48.271Z,101654.48
2019-05-05T17:28:17.647Z,101657.90
2019-05-05T17:30:48.585Z,101651.09
2019-05-05T17:33:17.773Z,101677.84
2019-05-05T17:35:46.947Z,101676.43
2019-05-05T17:38:17.000Z,101677.46
2019-05-05T17:40:47.120Z,101678.33
2019-05-05T17:43:27.872Z,101673.11
2019-05-05T17:46:07.000Z,101681.06
2019-05-05T17:48:55.613Z,101672.63
2019-05-05T17:51:34.698Z,101676.02
2019-05-05T17:54:05.128Z,101678.42
2019-05-05T17:56:33.718Z,101679.67
2019-05-05T17:59:03.475Z,101685.94
2019-05-05T18:01:33.582Z,101681.57
2019-05-05T18:04:03.996Z,101679.19
2019-05-05T18:06:34.388Z,101682.50
2019-05-05T18:09:21.072Z,101683.17
2019-05-05T18:11:56.958Z,101676.23
2019-05-05T18:14:27.383Z,101681.40
2019-05-05T18:16:56.238Z,101668.14
2019-05-05T18:19:24.862Z,101672.93
2019-05-05T18:21:54.767Z,101669.66
2019-05-05T18:24:24.261Z,101671.35
2019-05-05T18:26:55.928Z,101669.36
2019-05-05T18:29:24.401Z,101671.02
2019-05-05T18:31:53.561Z,101671.66
2019-05-05T18:34:23.570Z,101670.27
2019-05-05T18:36:54.430Z,101672.87
2019-05-05T18:39:24.729Z,101674.11
2019-05-05T18:41:54.887Z,101675.70
2019-05-05T18:44:27.940Z,101672.61
2019-05-05T18:47:18.370Z,101674.88
2019-05-05T18:49:46.479Z,101680.45
2019-05-05T18:52:14.924Z,101679.70
2019-05-05T18:54:43.741Z,101680.64
2019-05-05T18:57:12.398Z,101689.68
2019-05-05T18:59:40.835Z,101690.75
2019-05-05T19:02:14.408Z,101696.33
2019-05-05T19:04:53.741Z,101688.39
2019-05-05T19:07:33.706Z,101689.16
2019-05-05T19:10:04.056Z,101692.41
2019-05-05T19:12:34.529Z,101693.86
2019-05-05T19:15:04.409Z,101692.64
2019-05-05T19:17:35.191Z,101698.20
2019-05-05T19:20:09.429Z,101695.45
2019-05-05T19:22:38.871Z,101697.36
2019-05-05T19:25:17.049Z,101692.60
2019-05-05T19:27:46.757Z,101694.55
2019-05-05T19:30:17.520Z,101699.81
2019-05-05T19:32:46.591Z,101698.08
2019-05-05T19:35:15.886Z,101705.30
2019-05-05T19:37:46.143Z,101699.88
2019-05-05T19:40:15.609Z,101710.12
2019-05-05T19:42:46.321Z,101705.23
2019-05-05T19:45:16.181Z,101704.82
2019-05-05T19:47:45.099Z,101705.96
2019-05-05T19:50:18.340Z,101699.26
2019-05-05T19:52:46.932Z,101702.48
2019-05-05T19:55:16.022Z,101698.72
2019-05-05T19:57:44.722Z,101696.16
2019-05-05T20:00:14.580Z,101691.64
2019-05-05T20:02:43.912Z,101697.87
2019-05-05T20:05:14.422Z,101698.78
2019-05-05T20:07:43.910Z,101707.30
2019-05-05T20:10:14.699Z,101697.25
2019-05-05T20:12:44.877Z,101696.55
2019-05-05T20:15:15.391Z,101697.69
2019-05-05T20:17:44.492Z,101698.55
2019-05-05T20:20:13.955Z,101700.22
2019-05-05T20:22:44.443Z,101700.22
2019-05-05T20:25:14.125Z,101695.58
2019-05-05T20:27:43.063Z,101698.93
2019-05-05T20:30:14.069Z,101695.30
2019-05-05T20:32:46.584Z,101687.68
2019-05-05T20:35:25.584Z,101698.64
2019-05-05T20:37:56.018Z,101696.27
2019-05-05T20:40:26.093Z,101689.61
2019-05-05T20:42:54.522Z,101696.55
2019-05-05T20:45:24.623Z,101687.07
2019-05-05T20:47:53.657Z,101690.23
2019-05-05T20:50:24.729Z,101689.25
2019-05-05T20:52:53.721Z,101688.59
2019-05-05T20:55:22.137Z,101690.62
2019-05-05T20:57:50.559Z,101685.94
2019-05-05T21:00:19.381Z,101689.88
2019-05-05T21:02:47.797Z,101687.16
2019-05-05T21:05:16.277Z,101690.56
2019-05-05T21:07:44.823Z,101684.02
2019-05-05T21:10:14.373Z,101680.66
2019-05-05T21:12:45.641Z,101678.45
2019-05-05T21:15:14.121Z,101675.22
2019-05-05T21:17:44.800Z,101680.68
2019-05-05T21:20:14.506Z,101682.48
2019-05-05T21:22:44.886Z,101676.20
2019-05-05T21:25:24.041Z,101677.87
2019-05-05T21:27:52.450Z,101674.24
2019-05-05T21:30:20.892Z,101672.92
2019-05-05T21:32:49.332Z,101675.92
2019-05-05T21:35:18.155Z,101670.89
2019-05-05T21:37:46.608Z,101669.49
2019-05-05T21:40:16.074Z,101671.48
2019-05-05T21:42:44.669Z,101669.80
2019-05-05T21:45:13.256Z,101668.13
2019-05-05T21:47:41.679Z,101675.11
2019-05-05T21:50:14.314Z,101670.34
2019-05-05T21:53:00.636Z,101667.27
2019-05-05T21:55:31.190Z,101669.80
2019-05-05T21:58:17.805Z,101664.96
2019-05-05T22:00:51.099Z,101666.01
2019-05-05T22:03:29.923Z,101671.73
2019-05-05T22:05:58.861Z,101673.13
2019-05-05T22:08:27.290Z,101676.48
2019-05-05T22:10:55.714Z,101673.67
2019-05-05T22:13:24.160Z,101667.27
2019-05-05T22:15:54.583Z,101661.67
2019-05-05T22:18:22.971Z,101654.25
2019-05-05T22:21:11.165Z,101655.10
2019-05-05T22:23:39.683Z,101654.41
2019-05-05T22:26:08.112Z,101657.34
2019-05-05T22:28:36.554Z,101651.62
2019-05-05T22:31:05.002Z,101647.85
2019-05-05T22:33:34.177Z,101647.44
2019-05-05T22:36:04.421Z,101649.32
2019-05-05T22:38:34.020Z,101644.61
2019-05-05T22:41:02.494Z,101645.52
2019-05-05T22:43:31.888Z,101647.74
2019-05-05T22:46:00.372Z,101645.64
2019-05-05T22:48:28.790Z,101639.91
2019-05-05T22:50:57.250Z,101642.50
2019-05-05T22:53:26.040Z,101639.38
2019-05-05T22:55:54.471Z,101637.63
2019-05-05T22:58:24.020Z,101640.31
2019-05-05T23:00:54.724Z,101636.57
2019-05-05T23:03:33.707Z,101629.02
2019-05-05T23:06:09.810Z,101627.48
2019-05-05T23:08:38.226Z,101632.86
2019-05-05T23:11:06.953Z,101629.42
2019-05-05T23:13:35.387Z,101629.70
2019-05-05T23:16:11.698Z,101630.79
2019-05-05T23:18:40.571Z,101629.97
2019-05-05T23:21:15.621Z,101630.67
2019-05-05T23:24:01.046Z,101632.08
2019-05-05T23:26:31.107Z,101630.13
2019-05-05T23:28:59.558Z,101629.42
2019-05-05T23:31:28.194Z,101627.88
2019-05-05T23:33:56.842Z,101632.34
2019-05-05T23:36:25.255Z,101628.57
2019-05-05T23:38:54.888Z,101622.45
2019-05-05T23:41:23.992Z,101624.13
2019-05-05T23:43:54.315Z,101624.40
2019-05-05T23:46:24.131Z,101625.29
2019-05-05T23:48:53.724Z,101622.20
2019-05-05T23:51:24.273Z,101615.86
2019-05-05T23:53:54.857Z,101613.83
2019-05-05T23:56:24.078Z,101615.77
2019-05-05T23:58:54.948Z,101608.45
